Time;durP1;ratioP1;P1;durP2;ratioP2;P2;SDS_P1;SDS_P2;PMS_P1;PMS_P2;Temp;Humidity;BMP_temperature;BMP_pressure;BME280_temperature;BME280_humidity;BME280_pressure;Samples;Min_cycle;Max_cycle;Signal;HPM_P1;HPM_P2
2020/12/04 00:00:35;;;;;;;14.43;11.87;;;3.20;99.90;;;;;;5013728;28;20176;-65
2020/12/04 00:03:01;;;;;;;14.20;10.87;;;3.20;99.90;;;;;;5013218;28;20207;-67
2020/12/04 00:05:26;;;;;;;15.30;12.27;;;3.20;99.90;;;;;;5013319;28;20196;-65
2020/12/04 00:07:52;;;;;;;17.50;12.20;;;3.20;99.90;;;;;;5013121;28;20200;-67
2020/12/04 00:10:18;;;;;;;17.90;12.90;;;3.10;99.90;;;;;;5013274;28;20200;-67
2020/12/04 00:12:43;;;;;;;17.60;13.43;;;3.10;99.90;;;;;;5013388;28;20208;-66
2020/12/04 00:15:09;;;;;;;16.27;12.70;;;3.00;99.90;;;;;;5013092;28;20658;-67
2020/12/04 00:17:35;;;;;;;16.37;12.30;;;3.10;99.90;;;;;;5012934;28;20215;-67
2020/12/04 00:20:03;;;;;;;19.77;13.60;;;3.10;99.90;;;;;;5012936;28;20631;-65
2020/12/04 00:22:29;;;;;;;15.67;12.47;;;3.10;99.90;;;;;;5012766;28;20426;-68
2020/12/04 00:24:55;;;;;;;15.50;11.90;;;3.10;99.90;;;;;;5013027;28;20419;-65
2020/12/04 00:27:20;;;;;;;16.27;12.07;;;3.20;99.90;;;;;;5012874;28;20192;-66
2020/12/04 00:29:46;;;;;;;15.77;12.07;;;3.10;99.90;;;;;;5013035;28;20557;-66
2020/12/04 00:32:11;;;;;;;15.97;12.37;;;3.10;99.90;;;;;;5010280;28;20181;-66
2020/12/04 00:34:37;;;;;;;17.83;12.23;;;3.10;99.90;;;;;;5012688;28;20263;-65
2020/12/04 00:37:03;;;;;;;14.83;12.60;;;3.10;99.90;;;;;;5012721;28;20527;-65
2020/12/04 00:39:28;;;;;;;15.83;12.70;;;3.10;99.90;;;;;;5012660;28;20204;-66
2020/12/04 00:41:58;;;;;;;16.40;11.67;;;3.10;99.90;;;;;;5012610;28;20710;-64
2020/12/04 00:44:24;;;;;;;18.07;11.93;;;3.10;99.90;;;;;;5012737;28;20243;-67
2020/12/04 00:46:49;;;;;;;17.00;12.13;;;3.10;99.90;;;;;;5012342;28;20416;-67
2020/12/04 00:49:15;;;;;;;15.17;11.57;;;3.10;99.90;;;;;;5012162;28;20224;-66
2020/12/04 00:51:40;;;;;;;15.00;11.77;;;3.20;99.90;;;;;;5012387;28;20978;-67
2020/12/04 00:54:06;;;;;;;14.43;11.73;;;3.10;99.90;;;;;;5011940;28;20657;-64
2020/12/04 00:56:33;;;;;;;17.87;11.93;;;3.10;99.90;;;;;;5014058;28;20211;-66
2020/12/04 00:58:59;;;;;;;16.87;11.67;;;3.20;99.90;;;;;;4994556;28;20180;-66
2020/12/04 01:01:25;;;;;;;15.30;11.57;;;3.10;99.90;;;;;;5012590;28;20487;-68
2020/12/04 01:03:51;;;;;;;16.60;12.90;;;3.20;99.90;;;;;;5011880;28;20423;-66
2020/12/04 01:06:16;;;;;;;21.47;15.17;;;3.20;99.90;;;;;;5012482;28;20419;-66
2020/12/04 01:08:42;;;;;;;22.87;16.23;;;3.20;99.90;;;;;;5012725;28;20282;-66
2020/12/04 01:11:08;;;;;;;15.87;12.07;;;3.20;99.90;;;;;;5011885;28;20235;-66
2020/12/04 01:13:34;;;;;;;15.23;11.43;;;3.20;99.90;;;;;;5012186;28;20176;-65
2020/12/04 01:15:59;;;;;;;18.40;12.40;;;3.20;99.90;;;;;;5011825;28;20181;-65
2020/12/04 01:18:25;;;;;;;20.63;12.67;;;3.20;99.90;;;;;;5012106;28;20203;-67
2020/12/04 01:20:51;;;;;;;15.77;12.27;;;3.10;99.90;;;;;;5012055;28;20237;-68
2020/12/04 01:23:16;;;;;;;17.70;12.77;;;3.10;99.90;;;;;;4993010;28;20411;-67
2020/12/04 01:25:42;;;;;;;15.13;12.00;;;3.10;99.90;;;;;;5012113;28;20732;-67
2020/12/04 01:28:08;;;;;;;15.47;11.37;;;3.10;99.90;;;;;;5011516;28;20543;-65
2020/12/04 01:30:33;;;;;;;15.03;11.97;;;3.10;99.90;;;;;;5011932;28;20303;-67
2020/12/04 01:32:59;;;;;;;14.80;11.73;;;3.10;99.90;;;;;;5011869;28;20656;-65
2020/12/04 01:35:24;;;;;;;13.93;11.20;;;3.10;99.90;;;;;;5011509;28;20523;-66
2020/12/04 01:37:50;;;;;;;15.70;12.13;;;3.00;99.90;;;;;;5011811;28;20271;-66
2020/12/04 01:40:19;;;;;;;15.10;11.40;;;3.00;99.90;;;;;;5011415;28;20180;-65
2020/12/04 01:42:45;;;;;;;15.00;12.37;;;3.00;99.90;;;;;;5011795;28;20173;-66
2020/12/04 01:45:10;;;;;;;17.87;12.87;;;3.00;99.90;;;;;;5011235;28;20426;-66
2020/12/04 01:47:36;;;;;;;16.83;13.37;;;3.00;99.90;;;;;;5011630;28;20196;-65
2020/12/04 01:50:02;;;;;;;16.60;12.97;;;3.00;99.90;;;;;;5011636;28;20532;-66
2020/12/04 01:52:28;;;;;;;15.80;11.93;;;3.10;99.90;;;;;;5011245;28;20191;-65
2020/12/04 01:54:53;;;;;;;15.87;12.73;;;3.20;99.90;;;;;;5012986;28;20439;-65
2020/12/04 01:57:23;;;;;;;16.40;12.83;;;3.20;99.90;;;;;;5011289;28;20212;-64
2020/12/04 01:59:49;;;;;;;16.67;12.13;;;3.30;99.90;;;;;;5011190;28;20677;-67
2020/12/04 02:02:20;;;;;;;16.20;13.03;;;3.20;99.90;;;;;;5011526;28;20423;-65
2020/12/04 02:04:46;;;;;;;15.80;12.13;;;3.30;99.90;;;;;;5011967;28;20172;-67
2020/12/04 02:07:57;;;;;;;15.37;11.07;;;3.30;99.90;;;;;;5011529;28;20467;-67
2020/12/04 02:10:30;;;;;;;14.83;11.73;;;3.30;99.90;;;;;;5000240;28;20466;-65
2020/12/04 02:12:57;;;;;;;17.90;12.83;;;3.40;99.90;;;;;;5011277;28;20422;-67
2020/12/04 02:15:23;;;;;;;15.57;11.93;;;3.40;99.90;;;;;;5011194;28;20420;-66
2020/12/04 02:17:54;;;;;;;15.90;11.63;;;3.40;99.90;;;;;;5011013;28;20416;-67
2020/12/04 02:20:20;;;;;;;14.60;11.70;;;3.40;99.90;;;;;;4993836;28;20463;-67
2020/12/04 02:22:45;;;;;;;15.70;11.73;;;3.40;99.90;;;;;;5011096;28;20490;-68
2020/12/04 02:25:11;;;;;;;14.50;11.67;;;3.30;99.90;;;;;;4993577;28;20323;-67
2020/12/04 02:27:49;;;;;;;14.57;11.63;;;3.40;99.90;;;;;;5010990;28;20674;-66
2020/12/04 02:30:35;;;;;;;16.07;11.90;;;3.40;99.90;;;;;;5011082;28;20643;-65
2020/12/04 02:33:02;;;;;;;15.13;11.37;;;3.40;99.90;;;;;;5010448;28;20448;-66
2020/12/04 02:35:28;;;;;;;16.70;12.03;;;3.40;99.90;;;;;;4993512;28;20404;-67
2020/12/04 02:37:53;;;;;;;15.53;11.90;;;3.50;99.90;;;;;;5011081;28;20399;-66
2020/12/04 02:40:20;;;;;;;17.20;12.13;;;3.50;99.90;;;;;;5011369;28;20893;-66
2020/12/04 02:42:45;;;;;;;17.83;12.70;;;3.60;99.90;;;;;;5011048;28;20608;-67
2020/12/04 02:45:12;;;;;;;17.30;12.83;;;3.60;99.90;;;;;;5010841;28;20426;-67
2020/12/04 02:47:39;;;;;;;17.33;11.80;;;3.60;99.90;;;;;;5010777;28;20204;-66
2020/12/04 02:50:05;;;;;;;15.50;12.00;;;3.50;99.90;;;;;;5010639;28;20865;-66
2020/12/04 02:52:30;;;;;;;16.20;12.53;;;3.50;99.90;;;;;;5010898;28;20419;-66
2020/12/04 02:54:56;;;;;;;17.60;12.20;;;3.50;99.90;;;;;;5012203;28;20244;-67
2020/12/04 02:57:21;;;;;;;16.43;12.67;;;3.50;99.90;;;;;;5010922;28;20184;-68
2020/12/04 02:59:47;;;;;;;18.43;12.60;;;3.40;99.90;;;;;;5010988;28;20224;-65
2020/12/04 03:02:13;;;;;;;16.80;12.20;;;3.40;99.90;;;;;;5010606;28;20177;-67
2020/12/04 03:04:39;;;;;;;17.43;13.10;;;3.40;99.90;;;;;;5010765;28;20185;-66
2020/12/04 03:07:05;;;;;;;17.03;12.27;;;3.40;99.90;;;;;;5010572;28;20184;-66
2020/12/04 03:09:31;;;;;;;15.47;12.40;;;3.50;99.90;;;;;;5010884;28;20415;-68
2020/12/04 03:11:58;;;;;;;17.00;12.60;;;3.60;99.90;;;;;;5010547;28;20259;-67
2020/12/04 03:14:24;;;;;;;17.27;11.60;;;3.50;99.90;;;;;;5013864;28;20415;-67
2020/12/04 03:16:50;;;;;;;15.20;11.30;;;3.60;99.90;;;;;;5014633;28;20967;-66
2020/12/04 03:19:15;;;;;;;16.20;11.63;;;3.50;99.90;;;;;;5013942;28;20415;-66
2020/12/04 03:21:41;;;;;;;17.10;11.90;;;3.50;99.90;;;;;;5014352;28;20180;-66
2020/12/04 03:24:07;;;;;;;16.90;12.53;;;3.40;99.90;;;;;;5013771;28;20184;-65
2020/12/04 03:26:33;;;;;;;13.60;11.07;;;3.50;99.90;;;;;;5014255;28;20766;-67
2020/12/04 03:28:58;;;;;;;15.00;11.40;;;3.40;99.90;;;;;;5014085;28;20205;-67
2020/12/04 03:31:24;;;;;;;14.70;11.07;;;3.40;99.90;;;;;;5014103;28;20176;-66
2020/12/04 03:33:49;;;;;;;16.13;12.33;;;3.40;99.90;;;;;;5014162;28;20191;-67
2020/12/04 03:36:15;;;;;;;15.30;11.83;;;3.40;99.90;;;;;;5014211;28;20173;-67
2020/12/04 03:38:41;;;;;;;18.10;11.97;;;3.50;99.90;;;;;;5013863;28;20184;-67
2020/12/04 03:41:06;;;;;;;16.30;12.00;;;3.50;99.90;;;;;;5014133;28;20630;-66
2020/12/04 03:43:32;;;;;;;17.27;12.33;;;3.50;99.90;;;;;;5013639;28;20173;-65
2020/12/04 03:45:57;;;;;;;16.37;11.73;;;3.50;99.90;;;;;;5013845;28;20172;-67
2020/12/04 03:48:23;;;;;;;14.97;11.30;;;3.50;99.90;;;;;;5013463;28;20196;-67
2020/12/04 03:50:49;;;;;;;15.93;11.93;;;3.50;99.90;;;;;;5013618;28;20491;-66
2020/12/04 03:53:14;;;;;;;17.03;11.93;;;3.50;99.90;;;;;;5013889;28;20184;-67
2020/12/04 03:55:40;;;;;;;20.43;12.67;;;3.50;99.90;;;;;;5015299;28;20576;-66
2020/12/04 03:58:05;;;;;;;15.73;12.03;;;3.50;99.90;;;;;;5013613;28;20188;-66
2020/12/04 04:00:31;;;;;;;18.50;12.80;;;3.50;99.90;;;;;;5013980;28;20185;-68
2020/12/04 04:02:57;;;;;;;16.37;12.00;;;3.60;99.90;;;;;;5013185;28;20180;-66
2020/12/04 04:05:22;;;;;;;18.87;12.47;;;3.60;99.90;;;;;;5013727;28;20275;-66
2020/12/04 04:07:50;;;;;;;19.60;12.27;;;3.60;99.90;;;;;;5013111;28;20650;-65
2020/12/04 04:10:16;;;;;;;19.17;12.83;;;3.60;99.90;;;;;;5013248;28;20223;-67
2020/12/04 04:12:41;;;;;;;16.97;12.43;;;3.60;99.90;;;;;;4995646;28;20424;-67
2020/12/04 04:15:07;;;;;;;16.17;11.53;;;3.60;99.90;;;;;;5013062;28;20193;-65
2020/12/04 04:17:33;;;;;;;16.03;11.63;;;3.70;99.90;;;;;;5013142;28;20247;-66
2020/12/04 04:19:58;;;;;;;16.00;11.30;;;3.70;99.90;;;;;;5012974;28;20184;-67
2020/12/04 04:22:24;;;;;;;14.87;11.43;;;3.70;99.90;;;;;;5013355;28;20212;-67
2020/12/04 04:24:49;;;;;;;15.70;12.23;;;3.60;99.90;;;;;;5012170;28;20188;-65
2020/12/04 04:27:15;;;;;;;15.83;12.10;;;3.60;99.90;;;;;;5012832;28;20722;-67
2020/12/04 04:29:41;;;;;;;16.57;12.03;;;3.50;99.90;;;;;;5013011;28;20196;-67
2020/12/04 04:32:06;;;;;;;18.13;12.60;;;3.50;99.90;;;;;;5012625;28;20635;-68
2020/12/04 04:34:32;;;;;;;18.33;12.47;;;3.50;99.90;;;;;;5012689;28;20263;-65
2020/12/04 04:36:57;;;;;;;17.83;13.33;;;3.50;99.90;;;;;;5012917;28;20179;-66
2020/12/04 04:39:23;;;;;;;15.70;12.17;;;3.60;99.90;;;;;;5012601;28;20183;-68
2020/12/04 04:41:55;;;;;;;17.23;11.57;;;3.60;99.90;;;;;;5013033;28;20705;-67
2020/12/04 04:44:21;;;;;;;15.73;11.67;;;3.60;99.90;;;;;;5012510;28;20177;-66
2020/12/04 04:47:05;;;;;;;16.40;11.93;;;3.60;99.90;;;;;;5012393;28;20458;-68
2020/12/04 04:49:37;;;;;;;15.10;11.30;;;3.70;99.90;;;;;;5012566;28;20415;-66
2020/12/04 04:52:06;;;;;;;14.80;11.60;;;3.60;99.90;;;;;;5012673;28;20439;-67
2020/12/04 04:54:35;;;;;;;19.97;13.37;;;3.60;99.90;;;;;;5012505;28;20949;-66
2020/12/04 04:57:02;;;;;;;17.57;12.03;;;3.60;99.90;;;;;;5014974;28;20503;-66
2020/12/04 04:59:28;;;;;;;17.00;12.97;;;3.70;99.90;;;;;;5012412;28;20447;-66
2020/12/04 05:01:53;;;;;;;15.37;11.47;;;3.60;99.90;;;;;;5012321;28;20424;-67
2020/12/04 05:04:19;;;;;;;14.60;10.80;;;3.70;99.90;;;;;;5012476;28;20235;-64
2020/12/04 05:06:45;;;;;;;13.83;10.67;;;3.60;99.90;;;;;;5012321;28;20571;-66
2020/12/04 05:09:31;;;;;;;13.73;11.20;;;3.70;99.90;;;;;;5011999;28;20204;-67
2020/12/04 05:11:59;;;;;;;15.00;10.97;;;3.70;99.90;;;;;;4994642;28;20180;-67
2020/12/04 05:14:26;;;;;;;16.43;11.83;;;3.80;99.90;;;;;;5012053;28;20422;-66
2020/12/04 05:16:56;;;;;;;16.67;11.73;;;3.80;99.90;;;;;;5012118;28;20495;-64
2020/12/04 05:19:30;;;;;;;18.47;11.67;;;3.70;99.90;;;;;;5012230;28;20763;-68
2020/12/04 05:21:56;;;;;;;15.93;12.47;;;3.70;99.90;;;;;;5011929;28;20905;-66
2020/12/04 05:24:28;;;;;;;15.40;11.47;;;3.70;99.90;;;;;;5011774;28;20984;-67
2020/12/04 05:26:54;;;;;;;17.07;12.63;;;3.80;99.90;;;;;;5011824;28;20447;-67
2020/12/04 05:29:20;;;;;;;14.83;11.57;;;3.80;99.90;;;;;;5011746;28;20478;-65
2020/12/04 05:31:45;;;;;;;16.17;11.80;;;3.70;99.90;;;;;;5011658;28;20176;-67
2020/12/04 05:34:21;;;;;;;15.43;11.63;;;3.70;99.90;;;;;;5011542;28;20172;-67
2020/12/04 05:36:51;;;;;;;19.90;12.17;;;3.80;99.90;;;;;;5011512;28;20178;-68
2020/12/04 05:39:17;;;;;;;19.43;13.27;;;3.70;99.90;;;;;;5011635;28;20503;-65
2020/12/04 05:41:49;;;;;;;23.33;12.67;;;3.80;99.90;;;;;;5000512;28;20467;-67
2020/12/04 05:44:16;;;;;;;15.70;12.63;;;3.80;99.90;;;;;;4991738;28;20834;-66
2020/12/04 05:46:52;;;;;;;19.37;12.23;;;3.80;99.90;;;;;;4997157;28;20439;-64
2020/12/04 05:49:18;;;;;;;18.27;12.63;;;3.80;99.90;;;;;;5011215;28;20802;-66
2020/12/04 05:51:46;;;;;;;19.07;13.07;;;3.80;99.90;;;;;;4998421;28;20436;-64
2020/12/04 05:54:12;;;;;;;16.27;13.40;;;3.90;99.90;;;;;;4991824;28;20521;-68
2020/12/04 05:56:40;;;;;;;20.50;12.20;;;3.90;99.90;;;;;;5007342;28;20451;-66
2020/12/04 05:59:11;;;;;;;17.70;12.57;;;3.80;99.90;;;;;;5011266;28;20185;-68
2020/12/04 06:01:45;;;;;;;18.97;13.30;;;3.90;99.90;;;;;;5011012;28;20419;-65
2020/12/04 06:04:14;;;;;;;19.23;12.47;;;3.80;99.90;;;;;;5008693;28;20411;-66
2020/12/04 06:06:43;;;;;;;19.50;13.77;;;3.80;99.90;;;;;;5011175;28;21036;-66
2020/12/04 06:09:08;;;;;;;22.10;13.07;;;3.80;99.90;;;;;;5011062;28;20451;-65
2020/12/04 06:11:39;;;;;;;16.20;12.40;;;3.80;99.90;;;;;;5011005;28;20427;-66
2020/12/04 06:14:22;;;;;;;20.57;12.73;;;3.80;99.90;;;;;;5011000;28;20251;-67
2020/12/04 06:17:00;;;;;;;20.63;13.40;;;3.80;99.90;;;;;;5010915;28;20419;-67
2020/12/04 06:19:29;;;;;;;18.53;13.63;;;3.70;99.90;;;;;;5011282;28;20415;-67
2020/12/04 06:22:18;;;;;;;17.67;13.03;;;3.70;99.90;;;;;;5011262;28;20907;-64
2020/12/04 06:24:52;;;;;;;18.77;13.07;;;3.70;99.90;;;;;;5010452;28;20419;-67
2020/12/04 06:27:45;;;;;;;21.13;13.90;;;3.70;99.90;;;;;;5010680;28;20419;-66
2020/12/04 06:30:18;;;;;;;20.93;14.13;;;3.80;99.90;;;;;;5007385;28;20434;-67
2020/12/04 06:32:46;;;;;;;18.97;13.57;;;3.80;99.90;;;;;;5010928;28;20466;-67
2020/12/04 06:35:13;;;;;;;20.20;14.90;;;3.80;99.90;;;;;;5010638;28;20481;-67
2020/12/04 06:37:43;;;;;;;20.43;13.93;;;3.80;99.90;;;;;;5011032;28;20423;-65
2020/12/04 06:40:28;;;;;;;24.07;16.33;;;3.90;99.90;;;;;;5011239;28;20423;-68
2020/12/04 06:42:59;;;;;;;25.07;16.07;;;3.90;99.90;;;;;;5010692;28;20905;-65
2020/12/04 06:45:49;;;;;;;26.77;16.63;;;3.90;99.90;;;;;;5010550;28;20446;-67
2020/12/04 06:48:16;;;;;;;25.00;17.13;;;3.90;99.90;;;;;;5012289;28;20876;-68
2020/12/04 06:50:47;;;;;;;23.17;17.00;;;3.90;99.90;;;;;;5014232;28;20476;-65
2020/12/04 06:53:14;;;;;;;23.50;16.77;;;3.90;99.90;;;;;;5014636;28;20450;-67
2020/12/04 06:55:40;;;;;;;20.37;15.03;;;4.00;99.90;;;;;;4998632;28;20439;-68
2020/12/04 06:58:06;;;;;;;21.33;17.07;;;3.90;99.90;;;;;;5014761;28;20454;-65
2020/12/04 07:00:33;;;;;;;25.57;16.80;;;4.00;99.90;;;;;;5014703;28;20423;-65
2020/12/04 07:03:00;;;;;;;23.37;16.07;;;4.00;99.90;;;;;;5014712;28;20459;-67
2020/12/04 07:05:27;;;;;;;27.70;17.13;;;4.00;99.90;;;;;;5014825;28;20427;-67
2020/12/04 07:08:05;;;;;;;27.57;20.10;;;4.00;99.90;;;;;;5014195;28;20542;-67
2020/12/04 07:10:31;;;;;;;29.10;19.57;;;3.80;99.90;;;;;;5013561;28;20454;-66
2020/12/04 07:13:04;;;;;;;23.60;16.97;;;4.00;99.90;;;;;;5014625;28;20817;-67
2020/12/04 07:15:32;;;;;;;25.17;18.27;;;4.00;99.90;;;;;;5014802;28;20411;-65
2020/12/04 07:17:57;;;;;;;26.80;19.03;;;3.90;99.90;;;;;;5014867;28;20451;-65
2020/12/04 07:20:33;;;;;;;24.90;18.07;;;3.90;99.90;;;;;;5014972;28;20513;-67
2020/12/04 07:22:59;;;;;;;22.93;17.83;;;3.90;99.90;;;;;;5014458;28;20172;-66
2020/12/04 07:25:26;;;;;;;26.50;18.87;;;4.00;99.90;;;;;;4996906;28;20422;-67
2020/12/04 07:27:52;;;;;;;28.60;19.70;;;4.00;99.90;;;;;;5014376;28;20207;-67
2020/12/04 07:30:21;;;;;;;29.97;19.70;;;4.00;99.90;;;;;;5014332;28;20423;-65
2020/12/04 07:32:51;;;;;;;26.97;19.10;;;4.10;99.90;;;;;;5014413;28;20421;-66
2020/12/04 07:35:18;;;;;;;24.57;16.27;;;4.00;99.90;;;;;;5014639;28;20420;-68
2020/12/04 07:37:44;;;;;;;23.80;16.30;;;4.10;99.90;;;;;;5014471;28;20430;-67
2020/12/04 07:40:11;;;;;;;19.60;15.30;;;4.10;99.90;;;;;;5014235;28;20420;-66
2020/12/04 07:42:39;;;;;;;19.93;15.43;;;4.10;99.90;;;;;;5014464;28;20671;-65
2020/12/04 07:45:05;;;;;;;21.73;14.43;;;4.10;99.90;;;;;;5014378;28;20422;-66
2020/12/04 07:47:31;;;;;;;20.90;15.03;;;4.10;99.90;;;;;;5014205;28;20455;-65
2020/12/04 07:50:01;;;;;;;19.67;14.47;;;4.10;99.90;;;;;;5014323;28;20180;-66
2020/12/04 07:52:32;;;;;;;21.83;14.83;;;4.10;99.90;;;;;;5013451;28;20188;-65
2020/12/04 07:55:06;;;;;;;19.47;15.43;;;4.10;99.90;;;;;;5012579;28;20947;-67
2020/12/04 07:57:45;;;;;;;25.43;16.10;;;4.10;99.90;;;;;;5014043;28;20487;-67
2020/12/04 08:00:14;;;;;;;23.10;16.67;;;4.10;99.90;;;;;;5013426;28;20506;-67
2020/12/04 08:02:40;;;;;;;21.80;16.03;;;4.10;99.90;;;;;;5013585;28;20445;-67
2020/12/04 08:05:06;;;;;;;18.93;14.37;;;4.10;99.90;;;;;;5013920;28;20980;-66
2020/12/04 08:07:33;;;;;;;20.13;15.23;;;4.10;99.90;;;;;;5013418;28;20276;-65
2020/12/04 08:09:59;;;;;;;25.53;14.53;;;4.20;99.90;;;;;;5013754;28;20637;-65
2020/12/04 08:12:30;;;;;;;21.20;14.80;;;4.20;99.90;;;;;;5013448;28;20411;-67
2020/12/04 08:14:57;;;;;;;19.40;14.30;;;4.20;99.90;;;;;;5013556;28;20901;-65
2020/12/04 08:17:31;;;;;;;21.43;14.07;;;4.30;99.90;;;;;;5013298;28;20763;-67
2020/12/04 08:19:59;;;;;;;20.67;13.57;;;4.30;99.90;;;;;;5013707;28;20940;-66
2020/12/04 08:22:30;;;;;;;18.80;14.70;;;4.30;99.90;;;;;;5013142;28;20417;-67
2020/12/04 08:25:04;;;;;;;25.83;14.77;;;4.30;99.90;;;;;;5013289;28;20507;-66
2020/12/04 08:27:40;;;;;;;21.07;15.30;;;4.30;99.90;;;;;;5012926;28;21013;-65
2020/12/04 08:30:07;;;;;;;19.90;13.63;;;4.30;99.90;;;;;;5013282;28;20423;-68
2020/12/04 08:32:33;;;;;;;19.07;14.30;;;4.40;99.90;;;;;;5013127;28;20470;-67
2020/12/04 08:35:20;;;;;;;19.47;14.10;;;4.40;99.90;;;;;;5013207;28;20420;-66
2020/12/04 08:37:47;;;;;;;16.90;12.33;;;4.50;99.90;;;;;;5010364;28;20238;-65
2020/12/04 08:40:40;;;;;;;19.40;13.73;;;4.50;99.90;;;;;;5013368;28;20416;-67
2020/12/04 08:43:08;;;;;;;19.67;13.53;;;4.50;99.90;;;;;;5009791;28;20442;-65
2020/12/04 08:45:34;;;;;;;22.43;14.00;;;4.50;99.90;;;;;;5012877;28;20746;-65
2020/12/04 08:48:30;;;;;;;18.73;13.50;;;4.60;99.90;;;;;;5012489;28;20457;-68
2020/12/04 08:51:07;;;;;;;29.23;16.60;;;4.60;99.90;;;;;;5010893;28;20184;-65
2020/12/04 08:53:35;;;;;;;19.43;13.67;;;4.70;99.90;;;;;;5012608;28;20415;-65
2020/12/04 08:56:03;;;;;;;16.97;13.40;;;4.70;99.90;;;;;;5014351;28;20541;-68
2020/12/04 08:58:29;;;;;;;19.67;13.77;;;4.70;99.90;;;;;;5012669;28;20913;-65
2020/12/04 09:00:58;;;;;;;26.13;16.33;;;4.90;99.90;;;;;;5012388;28;20998;-65
2020/12/04 09:03:26;;;;;;;21.03;14.47;;;4.80;99.90;;;;;;5012604;28;20426;-66
2020/12/04 09:05:52;;;;;;;22.33;15.67;;;4.80;99.90;;;;;;5012139;28;20423;-66
2020/12/04 09:08:18;;;;;;;21.23;15.43;;;4.90;99.90;;;;;;5012256;28;20455;-66
2020/12/04 09:10:44;;;;;;;23.10;16.37;;;4.90;99.90;;;;;;5011919;28;20408;-65
2020/12/04 09:13:10;;;;;;;24.80;15.93;;;4.90;99.90;;;;;;5012776;28;20615;-68
2020/12/04 09:15:42;;;;;;;19.73;15.27;;;5.00;99.90;;;;;;5012006;28;20188;-68
2020/12/04 09:18:08;;;;;;;22.97;15.60;;;5.00;99.90;;;;;;5012178;28;20203;-66
2020/12/04 09:20:34;;;;;;;25.37;15.47;;;5.00;99.90;;;;;;5011937;28;20873;-65
2020/12/04 09:23:00;;;;;;;18.27;14.17;;;5.00;99.90;;;;;;5012070;28;20224;-66
2020/12/04 09:25:26;;;;;;;18.73;13.93;;;5.00;99.90;;;;;;5011953;28;20447;-66
2020/12/04 09:27:52;;;;;;;20.37;14.37;;;5.00;99.90;;;;;;5011991;28;20207;-66
2020/12/04 09:30:20;;;;;;;23.60;16.17;;;5.00;99.90;;;;;;5012107;28;20196;-67
2020/12/04 09:32:47;;;;;;;22.33;16.77;;;4.90;99.90;;;;;;5012080;28;20423;-66
2020/12/04 09:35:13;;;;;;;32.87;16.73;;;5.00;99.90;;;;;;5012531;28;20893;-66
2020/12/04 09:37:40;;;;;;;25.23;16.53;;;5.00;99.90;;;;;;5011918;28;21249;-65
2020/12/04 09:40:08;;;;;;;21.07;14.83;;;5.00;99.90;;;;;;5012096;28;20514;-67
2020/12/04 09:42:42;;;;;;;24.33;16.90;;;5.00;99.90;;;;;;5011382;28;20427;-66
2020/12/04 09:45:09;;;;;;;22.50;14.67;;;5.00;99.90;;;;;;5011878;28;20451;-65
2020/12/04 09:47:36;;;;;;;26.40;14.20;;;5.00;99.90;;;;;;5011407;28;20462;-67
2020/12/04 09:50:04;;;;;;;18.70;14.63;;;5.00;99.90;;;;;;5011721;28;20408;-66
2020/12/04 09:52:39;;;;;;;22.23;13.70;;;5.10;99.90;;;;;;5011576;28;20523;-67
2020/12/04 09:55:05;;;;;;;19.80;14.83;;;5.10;99.90;;;;;;5011651;28;20407;-68
2020/12/04 09:57:37;;;;;;;22.63;14.77;;;5.10;99.90;;;;;;5013456;28;20493;-68
2020/12/04 10:00:05;;;;;;;24.40;15.33;;;5.10;99.90;;;;;;5010275;28;20422;-65
2020/12/04 10:02:31;;;;;;;24.33;15.20;;;5.10;99.90;;;;;;5011610;28;20470;-67
2020/12/04 10:04:56;;;;;;;24.37;15.63;;;5.10;99.90;;;;;;5011456;28;20419;-68
2020/12/04 10:07:22;;;;;;;26.00;15.57;;;5.10;99.90;;;;;;5011441;28;20172;-68
2020/12/04 10:09:47;;;;;;;23.77;15.83;;;5.10;99.90;;;;;;5011473;28;20184;-66
2020/12/04 10:12:13;;;;;;;19.83;14.07;;;5.10;99.90;;;;;;5009075;28;20187;-67
2020/12/04 10:14:41;;;;;;;21.53;15.40;;;5.10;99.90;;;;;;5011572;28;20172;-65
2020/12/04 10:17:08;;;;;;;24.23;15.20;;;5.10;99.90;;;;;;5011234;28;20178;-65
2020/12/04 10:19:34;;;;;;;21.20;14.73;;;5.10;99.90;;;;;;5011242;28;20499;-68
2020/12/04 10:21:59;;;;;;;21.07;15.03;;;5.10;99.90;;;;;;5010794;28;21021;-67
2020/12/04 10:24:25;;;;;;;23.13;16.37;;;5.20;99.90;;;;;;4993293;28;20176;-68
2020/12/04 10:26:51;;;;;;;24.00;16.80;;;5.20;99.90;;;;;;4993724;28;20543;-66
2020/12/04 10:29:18;;;;;;;21.30;15.13;;;5.20;99.90;;;;;;5011261;28;20200;-66
2020/12/04 10:31:45;;;;;;;22.07;14.40;;;5.30;99.90;;;;;;5011180;28;20240;-65
2020/12/04 10:34:11;;;;;;;17.80;14.00;;;5.30;99.90;;;;;;5011139;28;20424;-65
2020/12/04 10:36:38;;;;;;;20.93;13.03;;;5.30;99.90;;;;;;5011191;28;20404;-68
2020/12/04 10:39:05;;;;;;;19.60;12.40;;;5.30;99.90;;;;;;5011028;28;20180;-66
2020/12/04 10:41:32;;;;;;;15.97;10.60;;;5.40;99.90;;;;;;5011318;28;20419;-67
2020/12/04 10:43:59;;;;;;;14.93;9.97;;;5.40;99.90;;;;;;5011091;28;20431;-68
2020/12/04 10:46:24;;;;;;;11.33;9.07;;;5.40;99.90;;;;;;5010948;28;20427;-68
2020/12/04 10:48:50;;;;;;;9.83;7.93;;;5.40;99.90;;;;;;5010967;28;20458;-65
2020/12/04 10:51:19;;;;;;;10.30;8.47;;;5.50;99.90;;;;;;5011029;28;20187;-66
2020/12/04 10:53:45;;;;;;;11.83;7.30;;;5.50;99.90;;;;;;5011026;28;20188;-65
2020/12/04 10:56:21;;;;;;;9.47;6.80;;;5.60;99.90;;;;;;5018898;28;20465;-67
2020/12/04 10:58:48;;;;;;;7.40;6.07;;;5.60;99.90;;;;;;5012844;28;20199;-67
2020/12/04 11:01:18;;;;;;;7.10;5.73;;;5.70;99.90;;;;;;5010938;28;20419;-68
2020/12/04 11:06:24;;;;;;;11.67;6.77;;;5.70;99.90;;;;;;5030258;28;20429;-68
2020/12/04 11:08:51;;;;;;;9.73;7.30;;;5.80;99.90;;;;;;5030550;28;20462;-68
2020/12/04 11:11:17;;;;;;;11.03;7.50;;;5.80;99.90;;;;;;5028709;28;20446;-67
2020/12/04 11:13:43;;;;;;;11.07;7.83;;;5.90;99.90;;;;;;5015908;28;20492;-68
2020/12/04 11:16:09;;;;;;;11.73;7.90;;;5.90;99.90;;;;;;5030315;28;20924;-67
2020/12/04 11:18:34;;;;;;;14.57;8.03;;;5.90;99.90;;;;;;5030662;28;20175;-68
2020/12/04 11:21:00;;;;;;;11.23;7.97;;;5.90;99.90;;;;;;5030444;28;20176;-69
2020/12/04 11:23:25;;;;;;;13.17;8.77;;;5.90;99.90;;;;;;5030647;28;20648;-67
2020/12/04 11:25:51;;;;;;;12.83;8.80;;;5.90;99.90;;;;;;5030438;28;20176;-66
2020/12/04 11:28:16;;;;;;;14.80;9.07;;;5.90;99.90;;;;;;5030282;28;20198;-67
2020/12/04 11:30:43;;;;;;;14.40;8.93;;;6.00;99.90;;;;;;5030286;28;20188;-66
2020/12/04 11:33:08;;;;;;;10.07;7.87;;;6.00;99.90;;;;;;5030079;28;20532;-65
2020/12/04 11:35:34;;;;;;;14.17;9.63;;;6.00;99.90;;;;;;5033607;28;20413;-66
2020/12/04 11:37:59;;;;;;;16.43;10.37;;;6.10;99.90;;;;;;5033766;28;20553;-68
2020/12/04 11:40:25;;;;;;;13.23;8.37;;;6.10;99.90;;;;;;5022230;28;20208;-65
2020/12/04 11:42:52;;;;;;;9.83;7.50;;;6.10;99.90;;;;;;5014159;28;20172;-66
2020/12/04 11:45:18;;;;;;;11.83;8.00;;;6.20;99.90;;;;;;5014052;28;20183;-66
2020/12/04 11:47:44;;;;;;;10.13;7.03;;;6.20;99.90;;;;;;5016166;28;20458;-67
2020/12/04 11:50:14;;;;;;;13.17;8.77;;;6.20;99.90;;;;;;5023374;28;20172;-66
2020/12/04 11:52:40;;;;;;;9.83;7.60;;;6.20;99.90;;;;;;5013620;28;20506;-66
2020/12/04 11:55:07;;;;;;;10.83;7.50;;;6.20;99.90;;;;;;5013672;28;20506;-67
2020/12/04 11:57:33;;;;;;;17.90;9.03;;;6.20;99.90;;;;;;5014815;28;20248;-66
2020/12/04 11:59:59;;;;;;;11.40;6.80;;;6.20;99.90;;;;;;5013470;28;20453;-68
2020/12/04 12:02:25;;;;;;;8.03;5.80;;;6.20;99.90;;;;;;5013605;28;20212;-68
2020/12/04 12:04:51;;;;;;;7.30;5.47;;;6.20;99.90;;;;;;5013498;28;20737;-66
2020/12/04 12:07:17;;;;;;;8.07;5.23;;;6.20;99.90;;;;;;5013507;28;20416;-67
2020/12/04 12:09:42;;;;;;;6.17;4.80;;;6.20;99.90;;;;;;5013357;28;20415;-66
2020/12/04 12:12:08;;;;;;;8.73;5.60;;;6.30;99.90;;;;;;5013716;28;20192;-66
2020/12/04 12:14:34;;;;;;;7.20;4.33;;;6.20;99.90;;;;;;5013260;28;20188;-65
2020/12/04 12:16:59;;;;;;;9.40;5.50;;;6.20;99.90;;;;;;5013431;28;20201;-66
2020/12/04 12:19:25;;;;;;;6.27;5.10;;;6.20;99.90;;;;;;4995620;28;20180;-68
2020/12/04 12:21:52;;;;;;;5.87;4.53;;;6.30;99.90;;;;;;5013417;28;20654;-66
2020/12/04 12:24:17;;;;;;;6.90;4.97;;;6.30;99.90;;;;;;5013343;28;20187;-65
2020/12/04 12:26:45;;;;;;;8.50;4.87;;;6.30;99.90;;;;;;5013086;28;20424;-65
2020/12/04 12:29:11;;;;;;;6.73;4.57;;;6.30;99.90;;;;;;5013022;28;20211;-67
2020/12/04 12:31:37;;;;;;;8.67;5.17;;;6.30;99.90;;;;;;5012646;28;20957;-65
2020/12/04 12:34:02;;;;;;;7.97;5.37;;;6.30;99.90;;;;;;5012923;28;20176;-65
2020/12/04 12:36:28;;;;;;;8.33;6.03;;;6.30;99.90;;;;;;5012824;28;20235;-67
2020/12/04 12:38:55;;;;;;;6.50;4.80;;;6.30;99.90;;;;;;5013117;28;20181;-67
2020/12/04 12:41:21;;;;;;;7.10;4.87;;;6.30;99.90;;;;;;5012891;28;20177;-65
2020/12/04 12:43:46;;;;;;;6.83;5.37;;;6.30;99.90;;;;;;5012538;28;20465;-66